Report METAR

 

LIBV - Gioia Del Colle, Italy
Distance from station: SSE 15km
Dati ricevuti: 28/09/2021 06:55
Parz. nuvoloso
Parz. nuvoloso
 Vento da N
Vento: N 15 km/h
Temperatura: 20°C
P.to Rugiada: 20°C
Umidità: 100%
Pressione: 1015 hPa
Nuvole: Parz. nuvoloso
Visibility: 6 km
Cloud details: Parz. nuvoloso 122 m
2021/09/28 04:55 LIBV 280455Z 35008KT 6000 SCT004 20/20 Q1015 RMK BKN SCT070 VIS MIN 6000 WIND THR32 36009KT WIND THR14 35009KT WHT
LIBD - Bari/Palese Macc, Italy
Distance from station: NNO 26km
Dati ricevuti: 28/09/2021 06:50
Parz. nuvoloso
Parz. nuvoloso
 Vento da NNO
Vento: NNO 11 km/h
Temperatura: 22°C
P.to Rugiada: 20°C
Umidità: 88%
Pressione: 1016 hPa
Nuvole: Parz. nuvoloso
Visibility: 10 km
Cloud details: Parz. nuvoloso 366 m
2021/09/28 04:50 LIBD 280450Z 33006KT 300V010 9999 SCT012 22/20 Q1016
LIBH - Marina Di Ginosa, Italy
Distance from station: S 53km
Dati ricevuti: 27/09/2021 19:55
DATI Obsoleti
Sereno
Sereno
 Vento da Variabile
Vento: Variabile 4 km/h
Temperatura: 25°C
P.to Rugiada: 23°C
Umidità: 89%
Pressione: 1014 hPa
Riassunto: Sereno
Visibility: superiore a 10 km
2021/09/27 17:55 LIBH 271755Z VRB02KT CAVOK 25/23 Q1014 RMK OVC SCT060 SCT100 OVC200 QUK / QUL / VIS MAR 12 KM VIS MIN 9999
 
LIBG - Grottaglie(Civ/A, Italy
Distance from station: SE 61km
Dati ricevuti: 27/09/2021 19:50
DATI Obsoleti
Poco Nuvoloso
Poco Nuvoloso
 Vento da OSO
Vento: OSO 7 km/h
Temperatura: 24°C
P.to Rugiada: 21°C
Umidità: 83%
Pressione: 1016 hPa
Nuvole: Poco Nuvoloso
Visibility: 10 km
Cloud details: Poco Nuvoloso 1219 m
2021/09/27 17:50 LIBG 271750Z 24004KT 200V280 9999 FEW040 24/21 Q1016
LIBR - Brindisi/Casale, Italy
Distance from station: ESE 96km
Dati ricevuti: 28/09/2021 06:50
Parz. nuvoloso
Parz. nuvoloso
 Vento da NNO
Vento: NNO 20 km/h
Temperatura: 23°C
P.to Rugiada: 20°C
Umidità: 83%
Pressione: 1014 hPa
Nuvole: Parz. nuvoloso
Visibility: 10 km
Cloud details: Poco Nuvoloso 305 m
Parz. nuvoloso 3353 m
2021/09/28 04:50 LIBR 280450Z AUTO 34011KT 9999 FEW010/// SCT110/// 23/20 Q1014
LIBA - Amendola (it-Afb, Italy
Distance from station: NO 118km
Dati ricevuti: 28/09/2021 06:55
Prev. Nuvoloso
Prev. Nuvoloso
 Vento da O
Vento: O 11 km/h
Temperatura: 21°C
P.to Rugiada: 18°C
Umidità: 83%
Pressione: 1016 hPa
Nuvole: Prev. Nuvoloso
Visibility: 10 km
Cloud details: Poco Nuvoloso 914 m
Prev. Nuvoloso 1829 m
2021/09/28 04:55 LIBA 280455Z 28006KT 9999 FEW030TCU BKN060 21/18 Q1016 RMK BKN VIS MIN 9999SW WIND THR11 28006KT WIND THR29 /////KT BLU
 
LIBF - Foggia/Gino Lisa, Italy
Distance from station: ONO 126km
Dati ricevuti: 27/09/2021 17:50
DATI Obsoleti
Sereno
Sereno
 Vento da SO
Vento: SO 22 km/h
Temperatura: 29°C
Indice di Calore: 29°C
P.to Rugiada: 15°C
Umidità: 43%
Pressione: 1014 hPa
Riassunto: Sereno
Visibility: superiore a 10 km
2021/09/27 15:50 LIBF 271550Z 23012KT CAVOK 29/15 Q1014
LIBN - Lecce (it-Afb), Italy
Distance from station: SE 132km
Dati ricevuti: 28/09/2021 06:55
Parz. nuvoloso
Parz. nuvoloso
 Vento da Variabile
Vento: Variabile 6 km/h
Temperatura: 21°C
P.to Rugiada: 20°C
Umidità: 94%
Pressione: 1014 hPa
Nuvole: Parz. nuvoloso
Visibility: 10 km
Cloud details: Parz. nuvoloso 610 m
2021/09/28 04:55 LIBN 280455Z VRB03KT 9999 SCT020 21/20 Q1014 RMK BKN SCT090 VIS MIN 9999 WIND THR14 VRB03KT WIND THR32 VRB03KT BLU